Skyland, Nevada
Current Conditions -  °F | °C
As of 8:53 PM on Saturday 20 Dec 2014 (Local Time) from KTVL Reporting Station
Overcast Overcast  
Wind Chill: 35°   Ceiling: 3900
Heat Index: 42°   Visibility: 10mi
Dew Point: 34°   Wind: 13mph
Humidity: 73%   Direction: 200°SSW
Pressure: 30.24"   Gusts: 18mph
Location:  39.0164°N, 119.925°W
Report Text: KTVL 210453Z AUTO 20011G16KT 10SM OVC039 06/01 A3024 RMK AO2 SLP226 T00560011
Loading
Personal Weather Stations






























Interactive Weather Map New forecast layout! Learn more

10-Day Weather Forecast

Advertisements
Track Severe Weather on mobile